Time;durP1;ratioP1;P1;durP2;ratioP2;P2;SDS_P1;SDS_P2;PMS_P1;PMS_P2;Temp;Humidity;BMP_temperature;BMP_pressure;BME280_temperature;BME280_humidity;BME280_pressure;Samples;Min_cycle;Max_cycle;Signal;HPM_P1;HPM_P2
2022/03/12 17:50:51;;;;;;;22.50;10.70;;;12.80;99.90;;;;;;5063389;28;20715;-59
2022/03/12 17:53:17;;;;;;;20.13;8.43;;;12.70;99.90;;;;;;5044848;28;20037;-58
2022/03/12 17:55:42;;;;;;;28.13;12.40;;;12.90;99.90;;;;;;5040731;28;20018;-59
2022/03/12 17:58:08;;;;;;;22.85;14.48;;;13.00;99.90;;;;;;5047543;28;20023;-57
2022/03/12 18:00:37;;;;;;;19.13;10.98;;;13.20;99.90;;;;;;5039322;28;20118;-57
2022/03/12 18:03:04;;;;;;;33.92;13.80;;;13.20;99.90;;;;;;5036165;28;20434;-57
2022/03/12 18:05:30;;;;;;;16.60;9.45;;;13.30;99.90;;;;;;5038528;28;20032;-59
2022/03/12 18:08:01;;;;;;;258.10;173.68;;;13.30;99.90;;;;;;5040348;28;20029;-58
2022/03/12 18:10:29;;;;;;;40.17;21.45;;;13.30;99.90;;;;;;5040034;28;20537;-54
2022/03/12 18:12:55;;;;;;;41.20;18.05;;;13.40;99.90;;;;;;5036045;28;20502;-59
2022/03/12 18:15:23;;;;;;;21.60;11.40;;;13.40;99.90;;;;;;5045621;28;20079;-58
2022/03/12 18:17:49;;;;;;;26.85;13.80;;;13.30;99.90;;;;;;5039929;28;20025;-60
2022/03/12 18:20:16;;;;;;;28.83;14.00;;;13.00;99.90;;;;;;5039416;28;20483;-57
2022/03/12 18:22:44;;;;;;;30.52;20.48;;;13.00;99.90;;;;;;5036236;28;20052;-62
2022/03/12 18:25:11;;;;;;;51.70;28.15;;;13.00;99.90;;;;;;5043374;28;20165;-56
2022/03/12 18:27:37;;;;;;;23.25;10.90;;;13.10;99.90;;;;;;5034270;28;20449;-59
2022/03/12 18:30:03;;;;;;;20.77;10.25;;;13.00;99.90;;;;;;5035137;28;20033;-60
2022/03/12 18:32:29;;;;;;;16.92;10.05;;;12.80;99.90;;;;;;5036717;28;20071;-56
2022/03/12 18:34:59;;;;;;;20.48;9.85;;;12.60;99.90;;;;;;5040520;28;20104;-58
2022/03/12 18:37:26;;;;;;;17.70;8.52;;;12.50;99.90;;;;;;5036356;28;20026;-57
2022/03/12 18:39:54;;;;;;;15.07;8.88;;;12.30;99.90;;;;;;5038675;28;20152;-59
2022/03/12 18:42:21;;;;;;;17.70;10.13;;;12.20;99.90;;;;;;5045515;28;20029;-57
2022/03/12 18:44:48;;;;;;;16.77;9.30;;;12.10;99.90;;;;;;5041065;28;20032;-58
2022/03/12 18:47:23;;;;;;;19.65;9.93;;;12.00;99.90;;;;;;5045376;28;20471;-58
2022/03/12 18:49:51;;;;;;;20.90;11.52;;;11.90;99.90;;;;;;5044985;28;20435;-60
2022/03/12 18:52:18;;;;;;;18.58;10.48;;;11.90;99.90;;;;;;5039670;28;20036;-59
2022/03/12 18:54:45;;;;;;;19.02;10.43;;;11.80;99.90;;;;;;5045448;28;20034;-60
2022/03/12 18:57:11;;;;;;;20.65;10.32;;;11.70;99.90;;;;;;5042954;28;20079;-59
2022/03/12 18:59:42;;;;;;;18.45;10.43;;;11.70;99.90;;;;;;5044888;28;20037;-58
2022/03/12 19:02:08;;;;;;;19.88;10.80;;;11.60;99.90;;;;;;5018208;28;20100;-59
2022/03/12 19:04:35;;;;;;;19.73;10.85;;;11.60;99.90;;;;;;5026600;28;20033;-59
2022/03/12 19:07:00;;;;;;;19.38;10.82;;;11.50;99.90;;;;;;5030462;28;20395;-58
2022/03/12 19:09:28;;;;;;;21.75;10.55;;;11.50;99.90;;;;;;5030002;28;20030;-57
2022/03/12 19:11:55;;;;;;;21.25;10.93;;;11.40;99.90;;;;;;5026655;28;20072;-56
2022/03/12 19:14:22;;;;;;;18.98;10.32;;;11.30;99.90;;;;;;5028117;28;20557;-55
2022/03/12 19:16:49;;;;;;;19.30;10.93;;;11.20;99.90;;;;;;5022514;28;20029;-59
2022/03/12 19:19:17;;;;;;;19.83;11.27;;;11.10;99.90;;;;;;5026489;28;20112;-60
2022/03/12 19:21:43;;;;;;;20.90;11.43;;;11.10;99.90;;;;;;5031710;28;20095;-57
2022/03/12 19:24:11;;;;;;;23.52;12.07;;;11.00;99.90;;;;;;5032215;28;20026;-58
2022/03/12 19:26:42;;;;;;;23.80;11.15;;;11.00;99.90;;;;;;5023193;28;20026;-60
2022/03/12 19:29:08;;;;;;;28.13;11.40;;;10.90;99.90;;;;;;5029321;28;20048;-59
2022/03/12 19:31:33;;;;;;;22.17;11.10;;;10.80;99.90;;;;;;5023828;28;20022;-59
2022/03/12 19:33:59;;;;;;;25.00;12.60;;;10.60;99.90;;;;;;5028578;28;20091;-59
2022/03/12 19:36:25;;;;;;;23.02;12.25;;;10.50;99.90;;;;;;5020889;28;20018;-59
2022/03/12 19:38:50;;;;;;;23.27;12.32;;;10.50;99.90;;;;;;5026318;28;20513;-60
2022/03/12 19:41:18;;;;;;;21.80;11.65;;;10.40;99.90;;;;;;5027100;28;20087;-56
2022/03/12 19:43:44;;;;;;;22.63;11.77;;;10.30;99.90;;;;;;5025711;28;20032;-60
2022/03/12 19:46:10;;;;;;;29.77;11.90;;;10.30;99.90;;;;;;5023576;28;20028;-60
